sensor_id;sensor_type;location;lat;lon;timestamp;temperature;humidity
18163;DHT22;9206;50.994;4.538;2023-11-22T00:02:30;4.50;99.90
18163;DHT22;9206;50.994;4.538;2023-11-22T00:05:18;4.50;99.90
18163;DHT22;9206;50.994;4.538;2023-11-22T00:08:11;4.50;99.90
18163;DHT22;9206;50.994;4.538;2023-11-22T00:11:00;4.50;99.90
18163;DHT22;9206;50.994;4.538;2023-11-22T00:13:51;4.50;99.90
18163;DHT22;9206;50.994;4.538;2023-11-22T00:16:41;4.40;99.90
18163;DHT22;9206;50.994;4.538;2023-11-22T00:19:34;4.30;99.90
18163;DHT22;9206;50.994;4.538;2023-11-22T00:22:25;4.30;99.90
18163;DHT22;9206;50.994;4.538;2023-11-22T00:25:16;4.20;99.90
18163;DHT22;9206;50.994;4.538;2023-11-22T00:28:12;4.10;99.90
18163;DHT22;9206;50.994;4.538;2023-11-22T00:31:05;4.10;99.90
18163;DHT22;9206;50.994;4.538;2023-11-22T00:33:56;4.00;99.90
18163;DHT22;9206;50.994;4.538;2023-11-22T00:36:43;4.00;99.90
18163;DHT22;9206;50.994;4.538;2023-11-22T00:39:32;3.90;99.90
18163;DHT22;9206;50.994;4.538;2023-11-22T00:42:22;3.80;99.90
18163;DHT22;9206;50.994;4.538;2023-11-22T00:45:11;3.70;99.90
18163;DHT22;9206;50.994;4.538;2023-11-22T00:47:59;3.70;99.90
18163;DHT22;9206;50.994;4.538;2023-11-22T00:50:49;3.70;99.90
18163;DHT22;9206;50.994;4.538;2023-11-22T00:53:40;3.60;99.90
18163;DHT22;9206;50.994;4.538;2023-11-22T00:56:28;3.50;99.90
18163;DHT22;9206;50.994;4.538;2023-11-22T00:59:16;3.50;99.90
18163;DHT22;9206;50.994;4.538;2023-11-22T01:02:09;3.40;99.90
18163;DHT22;9206;50.994;4.538;2023-11-22T01:04:59;3.40;99.90
18163;DHT22;9206;50.994;4.538;2023-11-22T01:07:48;3.40;99.90
18163;DHT22;9206;50.994;4.538;2023-11-22T01:10:41;3.30;99.90
18163;DHT22;9206;50.994;4.538;2023-11-22T01:13:32;3.20;99.90
18163;DHT22;9206;50.994;4.538;2023-11-22T01:16:26;3.20;99.90
18163;DHT22;9206;50.994;4.538;2023-11-22T01:19:16;3.10;99.90
18163;DHT22;9206;50.994;4.538;2023-11-22T01:22:07;3.10;99.90
18163;DHT22;9206;50.994;4.538;2023-11-22T01:25:05;3.00;99.90
18163;DHT22;9206;50.994;4.538;2023-11-22T01:27:58;3.00;99.90
18163;DHT22;9206;50.994;4.538;2023-11-22T01:30:46;2.90;99.90
18163;DHT22;9206;50.994;4.538;2023-11-22T01:33:40;2.90;99.90
18163;DHT22;9206;50.994;4.538;2023-11-22T01:36:32;2.80;99.90
18163;DHT22;9206;50.994;4.538;2023-11-22T01:39:26;2.80;99.90
18163;DHT22;9206;50.994;4.538;2023-11-22T01:42:13;2.70;99.90
18163;DHT22;9206;50.994;4.538;2023-11-22T01:45:07;2.70;99.90
18163;DHT22;9206;50.994;4.538;2023-11-22T01:47:55;2.70;99.90
18163;DHT22;9206;50.994;4.538;2023-11-22T01:50:45;2.60;99.90
18163;DHT22;9206;50.994;4.538;2023-11-22T01:53:39;2.60;99.90
18163;DHT22;9206;50.994;4.538;2023-11-22T01:56:35;2.60;99.90
18163;DHT22;9206;50.994;4.538;2023-11-22T01:59:29;2.60;99.90
18163;DHT22;9206;50.994;4.538;2023-11-22T02:02:20;2.60;99.90
18163;DHT22;9206;50.994;4.538;2023-11-22T02:05:14;2.60;99.90
18163;DHT22;9206;50.994;4.538;2023-11-22T02:08:04;2.50;99.90
18163;DHT22;9206;50.994;4.538;2023-11-22T02:11:09;2.50;99.90
18163;DHT22;9206;50.994;4.538;2023-11-22T02:17:23;2.50;99.90
18163;DHT22;9206;50.994;4.538;2023-11-22T02:20:17;2.50;99.90
18163;DHT22;9206;50.994;4.538;2023-11-22T02:23:07;2.50;99.90
18163;DHT22;9206;50.994;4.538;2023-11-22T02:25:56;2.40;99.90
18163;DHT22;9206;50.994;4.538;2023-11-22T02:28:47;2.40;99.90
18163;DHT22;9206;50.994;4.538;2023-11-22T02:31:40;2.40;99.90
18163;DHT22;9206;50.994;4.538;2023-11-22T02:34:28;2.40;99.90
18163;DHT22;9206;50.994;4.538;2023-11-22T02:37:21;2.30;99.90
18163;DHT22;9206;50.994;4.538;2023-11-22T02:40:16;2.30;99.90
18163;DHT22;9206;50.994;4.538;2023-11-22T02:43:04;2.20;99.90
18163;DHT22;9206;50.994;4.538;2023-11-22T02:46:00;2.20;99.90
18163;DHT22;9206;50.994;4.538;2023-11-22T02:48:52;2.20;99.90
18163;DHT22;9206;50.994;4.538;2023-11-22T02:51:42;2.20;99.90
18163;DHT22;9206;50.994;4.538;2023-11-22T02:54:35;2.10;99.90
18163;DHT22;9206;50.994;4.538;2023-11-22T02:57:29;2.10;99.90
18163;DHT22;9206;50.994;4.538;2023-11-22T03:00:17;2.10;99.90
18163;DHT22;9206;50.994;4.538;2023-11-22T03:03:08;2.00;99.90
18163;DHT22;9206;50.994;4.538;2023-11-22T03:05:56;1.90;99.90
18163;DHT22;9206;50.994;4.538;2023-11-22T03:08:44;1.90;99.90
18163;DHT22;9206;50.994;4.538;2023-11-22T03:11:37;1.90;99.90
18163;DHT22;9206;50.994;4.538;2023-11-22T03:14:28;1.80;99.90
18163;DHT22;9206;50.994;4.538;2023-11-22T03:17:18;1.80;99.90
18163;DHT22;9206;50.994;4.538;2023-11-22T03:20:07;1.70;99.90
18163;DHT22;9206;50.994;4.538;2023-11-22T03:23:02;1.70;99.90
18163;DHT22;9206;50.994;4.538;2023-11-22T03:25:51;1.70;99.90
18163;DHT22;9206;50.994;4.538;2023-11-22T03:28:44;1.70;99.90
18163;DHT22;9206;50.994;4.538;2023-11-22T03:31:33;1.60;99.90
18163;DHT22;9206;50.994;4.538;2023-11-22T03:34:37;1.50;99.90
18163;DHT22;9206;50.994;4.538;2023-11-22T03:37:27;1.50;99.90
18163;DHT22;9206;50.994;4.538;2023-11-22T03:40:15;1.50;99.90
18163;DHT22;9206;50.994;4.538;2023-11-22T03:43:04;1.50;99.90
18163;DHT22;9206;50.994;4.538;2023-11-22T03:45:54;1.40;99.90
18163;DHT22;9206;50.994;4.538;2023-11-22T03:48:48;1.40;99.90
18163;DHT22;9206;50.994;4.538;2023-11-22T03:51:38;1.30;99.90
18163;DHT22;9206;50.994;4.538;2023-11-22T03:54:28;1.30;99.90
18163;DHT22;9206;50.994;4.538;2023-11-22T03:57:19;1.30;99.90
18163;DHT22;9206;50.994;4.538;2023-11-22T04:00:10;1.30;99.90
18163;DHT22;9206;50.994;4.538;2023-11-22T04:02:59;1.30;99.90
18163;DHT22;9206;50.994;4.538;2023-11-22T04:05:51;1.20;99.90
18163;DHT22;9206;50.994;4.538;2023-11-22T04:08:44;1.20;99.90
18163;DHT22;9206;50.994;4.538;2023-11-22T04:11:32;1.20;99.90
18163;DHT22;9206;50.994;4.538;2023-11-22T04:14:22;1.10;99.90
18163;DHT22;9206;50.994;4.538;2023-11-22T04:20:28;1.10;99.90
18163;DHT22;9206;50.994;4.538;2023-11-22T04:23:20;1.10;99.90
18163;DHT22;9206;50.994;4.538;2023-11-22T04:26:10;1.10;99.90
18163;DHT22;9206;50.994;4.538;2023-11-22T04:29:03;1.10;99.90
18163;DHT22;9206;50.994;4.538;2023-11-22T04:35:28;1.00;99.90
18163;DHT22;9206;50.994;4.538;2023-11-22T04:38:15;1.00;99.90
18163;DHT22;9206;50.994;4.538;2023-11-22T04:41:07;1.00;99.90
18163;DHT22;9206;50.994;4.538;2023-11-22T04:43:58;1.00;99.90
18163;DHT22;9206;50.994;4.538;2023-11-22T04:46:46;1.00;99.90
18163;DHT22;9206;50.994;4.538;2023-11-22T04:49:33;1.00;99.90
18163;DHT22;9206;50.994;4.538;2023-11-22T04:52:21;1.00;99.90
18163;DHT22;9206;50.994;4.538;2023-11-22T04:55:14;1.10;99.90
18163;DHT22;9206;50.994;4.538;2023-11-22T04:58:04;1.10;99.90
18163;DHT22;9206;50.994;4.538;2023-11-22T05:00:55;1.20;99.90
18163;DHT22;9206;50.994;4.538;2023-11-22T05:03:46;1.20;99.90
18163;DHT22;9206;50.994;4.538;2023-11-22T05:06:34;1.30;99.90
18163;DHT22;9206;50.994;4.538;2023-11-22T05:09:24;1.30;99.90
18163;DHT22;9206;50.994;4.538;2023-11-22T05:12:18;1.40;99.90
18163;DHT22;9206;50.994;4.538;2023-11-22T05:15:07;1.40;99.90
18163;DHT22;9206;50.994;4.538;2023-11-22T05:18:01;1.40;99.90
18163;DHT22;9206;50.994;4.538;2023-11-22T05:20:54;1.40;99.90
18163;DHT22;9206;50.994;4.538;2023-11-22T05:23:45;1.40;99.90
18163;DHT22;9206;50.994;4.538;2023-11-22T05:26:35;1.50;99.90
18163;DHT22;9206;50.994;4.538;2023-11-22T05:29:26;1.50;99.90
18163;DHT22;9206;50.994;4.538;2023-11-22T05:32:18;1.50;99.90
18163;DHT22;9206;50.994;4.538;2023-11-22T05:35:21;1.60;99.90
18163;DHT22;9206;50.994;4.538;2023-11-22T05:38:12;1.70;99.90
18163;DHT22;9206;50.994;4.538;2023-11-22T05:41:01;1.80;99.90
18163;DHT22;9206;50.994;4.538;2023-11-22T05:43:52;1.90;99.90
18163;DHT22;9206;50.994;4.538;2023-11-22T05:46:45;2.00;99.90
18163;DHT22;9206;50.994;4.538;2023-11-22T05:49:34;2.10;99.90
18163;DHT22;9206;50.994;4.538;2023-11-22T05:52:23;2.20;99.90
18163;DHT22;9206;50.994;4.538;2023-11-22T05:55:10;2.30;99.90
18163;DHT22;9206;50.994;4.538;2023-11-22T05:58:07;2.40;99.90
18163;DHT22;9206;50.994;4.538;2023-11-22T06:01:01;2.40;99.90
18163;DHT22;9206;50.994;4.538;2023-11-22T06:03:49;2.50;99.90
18163;DHT22;9206;50.994;4.538;2023-11-22T06:06:41;2.60;99.90
18163;DHT22;9206;50.994;4.538;2023-11-22T06:09:28;2.60;99.90
18163;DHT22;9206;50.994;4.538;2023-11-22T06:12:15;2.70;99.90
18163;DHT22;9206;50.994;4.538;2023-11-22T06:15:09;2.70;99.90
18163;DHT22;9206;50.994;4.538;2023-11-22T06:17:56;2.80;99.90
18163;DHT22;9206;50.994;4.538;2023-11-22T06:20:45;2.80;99.90
18163;DHT22;9206;50.994;4.538;2023-11-22T06:23:37;2.90;99.90
18163;DHT22;9206;50.994;4.538;2023-11-22T06:26:26;2.90;99.90
18163;DHT22;9206;50.994;4.538;2023-11-22T06:29:16;2.90;99.90
18163;DHT22;9206;50.994;4.538;2023-11-22T06:32:22;3.00;99.90
18163;DHT22;9206;50.994;4.538;2023-11-22T06:35:10;3.00;99.90
18163;DHT22;9206;50.994;4.538;2023-11-22T06:38:00;3.00;99.90
18163;DHT22;9206;50.994;4.538;2023-11-22T06:40:51;3.00;99.90
18163;DHT22;9206;50.994;4.538;2023-11-22T06:43:41;3.00;99.90
18163;DHT22;9206;50.994;4.538;2023-11-22T06:46:28;3.00;99.90
18163;DHT22;9206;50.994;4.538;2023-11-22T06:49:19;3.10;99.90
18163;DHT22;9206;50.994;4.538;2023-11-22T06:52:07;3.10;99.90
18163;DHT22;9206;50.994;4.538;2023-11-22T06:55:01;3.10;99.90
18163;DHT22;9206;50.994;4.538;2023-11-22T06:57:49;3.10;99.90
18163;DHT22;9206;50.994;4.538;2023-11-22T07:00:43;3.10;99.90
18163;DHT22;9206;50.994;4.538;2023-11-22T07:03:33;3.20;99.90
18163;DHT22;9206;50.994;4.538;2023-11-22T07:06:23;3.20;99.90
18163;DHT22;9206;50.994;4.538;2023-11-22T07:09:14;3.20;99.90
18163;DHT22;9206;50.994;4.538;2023-11-22T07:12:04;3.20;99.90
18163;DHT22;9206;50.994;4.538;2023-11-22T07:14:53;3.20;99.90
18163;DHT22;9206;50.994;4.538;2023-11-22T07:17:47;3.30;99.90
18163;DHT22;9206;50.994;4.538;2023-11-22T07:20:40;3.20;99.90
18163;DHT22;9206;50.994;4.538;2023-11-22T07:23:31;3.20;99.90
18163;DHT22;9206;50.994;4.538;2023-11-22T07:26:22;3.20;99.90
18163;DHT22;9206;50.994;4.538;2023-11-22T07:29:15;3.30;99.90
18163;DHT22;9206;50.994;4.538;2023-11-22T07:32:04;3.30;99.90
18163;DHT22;9206;50.994;4.538;2023-11-22T07:34:52;3.30;99.90
18163;DHT22;9206;50.994;4.538;2023-11-22T07:37:42;3.40;99.90
18163;DHT22;9206;50.994;4.538;2023-11-22T07:40:33;3.40;99.90
18163;DHT22;9206;50.994;4.538;2023-11-22T07:43:20;3.40;99.90
18163;DHT22;9206;50.994;4.538;2023-11-22T07:46:10;3.40;99.90
18163;DHT22;9206;50.994;4.538;2023-11-22T07:49:03;3.40;99.90
18163;DHT22;9206;50.994;4.538;2023-11-22T07:51:52;3.40;99.90
18163;DHT22;9206;50.994;4.538;2023-11-22T07:54:39;3.40;99.90
18163;DHT22;9206;50.994;4.538;2023-11-22T07:57:29;3.50;99.90
18163;DHT22;9206;50.994;4.538;2023-11-22T08:00:23;3.50;99.90
18163;DHT22;9206;50.994;4.538;2023-11-22T08:03:16;3.50;99.90
18163;DHT22;9206;50.994;4.538;2023-11-22T08:06:12;3.50;99.90
18163;DHT22;9206;50.994;4.538;2023-11-22T08:09:06;3.50;99.90
18163;DHT22;9206;50.994;4.538;2023-11-22T08:11:55;3.60;99.90
18163;DHT22;9206;50.994;4.538;2023-11-22T08:14:42;3.60;99.90
18163;DHT22;9206;50.994;4.538;2023-11-22T08:17:32;3.60;99.90
18163;DHT22;9206;50.994;4.538;2023-11-22T08:20:26;3.70;99.90
18163;DHT22;9206;50.994;4.538;2023-11-22T08:23:15;3.70;99.90
18163;DHT22;9206;50.994;4.538;2023-11-22T08:26:03;3.80;99.90
18163;DHT22;9206;50.994;4.538;2023-11-22T08:28:51;3.80;99.90
18163;DHT22;9206;50.994;4.538;2023-11-22T08:31:39;3.90;99.90
18163;DHT22;9206;50.994;4.538;2023-11-22T08:34:27;3.90;99.90
18163;DHT22;9206;50.994;4.538;2023-11-22T08:37:14;4.00;99.90
18163;DHT22;9206;50.994;4.538;2023-11-22T08:40:06;4.10;99.90
18163;DHT22;9206;50.994;4.538;2023-11-22T08:42:59;4.20;99.90
18163;DHT22;9206;50.994;4.538;2023-11-22T08:45:47;4.30;99.90
18163;DHT22;9206;50.994;4.538;2023-11-22T08:48:36;4.30;99.90
18163;DHT22;9206;50.994;4.538;2023-11-22T08:51:26;4.40;99.90
18163;DHT22;9206;50.994;4.538;2023-11-22T08:54:17;4.40;99.90
18163;DHT22;9206;50.994;4.538;2023-11-22T08:57:12;4.50;99.90
18163;DHT22;9206;50.994;4.538;2023-11-22T08:59:59;4.50;99.90
18163;DHT22;9206;50.994;4.538;2023-11-22T09:02:56;4.50;99.90
18163;DHT22;9206;50.994;4.538;2023-11-22T09:05:43;4.50;99.90
18163;DHT22;9206;50.994;4.538;2023-11-22T09:08:35;4.60;99.90
18163;DHT22;9206;50.994;4.538;2023-11-22T09:11:22;4.70;99.90
18163;DHT22;9206;50.994;4.538;2023-11-22T09:14:17;4.70;99.90
18163;DHT22;9206;50.994;4.538;2023-11-22T09:17:09;4.80;99.90
18163;DHT22;9206;50.994;4.538;2023-11-22T09:19:59;4.80;99.90
18163;DHT22;9206;50.994;4.538;2023-11-22T09:23:02;4.80;99.90
18163;DHT22;9206;50.994;4.538;2023-11-22T09:25:56;4.80;99.90
18163;DHT22;9206;50.994;4.538;2023-11-22T09:28:46;4.90;99.90
18163;DHT22;9206;50.994;4.538;2023-11-22T09:31:38;4.90;99.90
18163;DHT22;9206;50.994;4.538;2023-11-22T09:34:26;4.90;99.90
18163;DHT22;9206;50.994;4.538;2023-11-22T09:37:19;4.90;99.90
18163;DHT22;9206;50.994;4.538;2023-11-22T09:40:08;4.90;99.90
18163;DHT22;9206;50.994;4.538;2023-11-22T09:43:00;4.90;99.90
18163;DHT22;9206;50.994;4.538;2023-11-22T09:45:51;4.90;99.90
18163;DHT22;9206;50.994;4.538;2023-11-22T09:48:46;4.90;99.90
18163;DHT22;9206;50.994;4.538;2023-11-22T09:51:44;4.90;99.90
18163;DHT22;9206;50.994;4.538;2023-11-22T09:54:51;4.90;99.90
18163;DHT22;9206;50.994;4.538;2023-11-22T09:57:42;4.90;99.90
18163;DHT22;9206;50.994;4.538;2023-11-22T10:00:32;5.00;99.90
18163;DHT22;9206;50.994;4.538;2023-11-22T10:03:20;5.00;99.90
18163;DHT22;9206;50.994;4.538;2023-11-22T10:06:09;5.10;99.90
18163;DHT22;9206;50.994;4.538;2023-11-22T10:09:02;5.10;99.90
18163;DHT22;9206;50.994;4.538;2023-11-22T10:11:58;5.10;99.90
18163;DHT22;9206;50.994;4.538;2023-11-22T10:14:51;5.20;99.90
18163;DHT22;9206;50.994;4.538;2023-11-22T10:17:53;5.20;99.90
18163;DHT22;9206;50.994;4.538;2023-11-22T10:20:47;5.00;99.90
18163;DHT22;9206;50.994;4.538;2023-11-22T10:23:40;5.00;99.90
18163;DHT22;9206;50.994;4.538;2023-11-22T10:26:33;5.10;99.90
18163;DHT22;9206;50.994;4.538;2023-11-22T10:29:21;5.20;99.90
18163;DHT22;9206;50.994;4.538;2023-11-22T10:32:12;5.20;99.90
18163;DHT22;9206;50.994;4.538;2023-11-22T10:35:02;5.30;99.90
18163;DHT22;9206;50.994;4.538;2023-11-22T10:37:53;5.30;99.90
18163;DHT22;9206;50.994;4.538;2023-11-22T10:40:41;5.50;99.90
18163;DHT22;9206;50.994;4.538;2023-11-22T10:43:34;5.70;99.90
18163;DHT22;9206;50.994;4.538;2023-11-22T10:46:26;5.80;99.90
18163;DHT22;9206;50.994;4.538;2023-11-22T10:49:20;5.70;99.90
18163;DHT22;9206;50.994;4.538;2023-11-22T10:52:12;5.70;99.90
18163;DHT22;9206;50.994;4.538;2023-11-22T10:55:04;5.80;99.90
18163;DHT22;9206;50.994;4.538;2023-11-22T10:58:02;5.70;99.90
18163;DHT22;9206;50.994;4.538;2023-11-22T11:00:55;5.70;99.90
18163;DHT22;9206;50.994;4.538;2023-11-22T11:03:55;5.70;99.90
18163;DHT22;9206;50.994;4.538;2023-11-22T11:06:53;5.80;99.90
18163;DHT22;9206;50.994;4.538;2023-11-22T11:09:54;5.80;99.90
18163;DHT22;9206;50.994;4.538;2023-11-22T11:12:45;5.90;99.90
18163;DHT22;9206;50.994;4.538;2023-11-22T11:15:34;6.00;99.90
18163;DHT22;9206;50.994;4.538;2023-11-22T11:18:25;6.00;99.90
18163;DHT22;9206;50.994;4.538;2023-11-22T11:21:15;6.20;99.90
18163;DHT22;9206;50.994;4.538;2023-11-22T11:24:02;6.40;99.90
18163;DHT22;9206;50.994;4.538;2023-11-22T11:26:50;6.40;99.90
18163;DHT22;9206;50.994;4.538;2023-11-22T11:29:45;6.50;99.90
18163;DHT22;9206;50.994;4.538;2023-11-22T11:32:40;6.50;99.90
18163;DHT22;9206;50.994;4.538;2023-11-22T11:35:37;6.40;99.90
18163;DHT22;9206;50.994;4.538;2023-11-22T11:38:31;6.40;99.90
18163;DHT22;9206;50.994;4.538;2023-11-22T11:41:25;6.40;99.90
18163;DHT22;9206;50.994;4.538;2023-11-22T11:44:16;6.50;99.90
18163;DHT22;9206;50.994;4.538;2023-11-22T11:47:13;6.60;99.90
18163;DHT22;9206;50.994;4.538;2023-11-22T11:50:03;6.70;99.90
18163;DHT22;9206;50.994;4.538;2023-11-22T11:52:52;6.80;99.90
18163;DHT22;9206;50.994;4.538;2023-11-22T11:55:51;7.30;99.90
18163;DHT22;9206;50.994;4.538;2023-11-22T11:58:47;7.80;99.90
18163;DHT22;9206;50.994;4.538;2023-11-22T12:01:38;8.70;99.90
18163;DHT22;9206;50.994;4.538;2023-11-22T12:04:31;10.00;99.90
18163;DHT22;9206;50.994;4.538;2023-11-22T12:07:24;9.90;99.90
18163;DHT22;9206;50.994;4.538;2023-11-22T12:10:12;9.70;99.90
18163;DHT22;9206;50.994;4.538;2023-11-22T12:13:02;9.70;99.90
18163;DHT22;9206;50.994;4.538;2023-11-22T12:15:52;9.50;99.90
18163;DHT22;9206;50.994;4.538;2023-11-22T12:18:40;9.40;99.90
18163;DHT22;9206;50.994;4.538;2023-11-22T12:21:30;9.00;99.90
18163;DHT22;9206;50.994;4.538;2023-11-22T12:24:26;8.70;99.90
18163;DHT22;9206;50.994;4.538;2023-11-22T12:27:24;8.50;99.90
18163;DHT22;9206;50.994;4.538;2023-11-22T12:30:30;8.40;99.90
18163;DHT22;9206;50.994;4.538;2023-11-22T12:33:18;8.40;99.90
18163;DHT22;9206;50.994;4.538;2023-11-22T12:36:11;8.30;99.90
18163;DHT22;9206;50.994;4.538;2023-11-22T12:39:15;8.60;99.90
18163;DHT22;9206;50.994;4.538;2023-11-22T12:42:07;8.90;99.90
18163;DHT22;9206;50.994;4.538;2023-11-22T12:45:00;9.10;99.90
18163;DHT22;9206;50.994;4.538;2023-11-22T12:47:54;9.40;99.90
18163;DHT22;9206;50.994;4.538;2023-11-22T12:50:47;9.70;99.90
18163;DHT22;9206;50.994;4.538;2023-11-22T12:53:35;9.70;99.90
18163;DHT22;9206;50.994;4.538;2023-11-22T12:56:23;9.60;99.90
18163;DHT22;9206;50.994;4.538;2023-11-22T12:59:17;9.50;99.90
18163;DHT22;9206;50.994;4.538;2023-11-22T13:02:07;9.20;99.90
18163;DHT22;9206;50.994;4.538;2023-11-22T13:05:15;9.30;99.90
18163;DHT22;9206;50.994;4.538;2023-11-22T13:08:02;9.30;99.90
18163;DHT22;9206;50.994;4.538;2023-11-22T13:10:53;9.50;99.90
18163;DHT22;9206;50.994;4.538;2023-11-22T13:13:44;10.10;99.90
18163;DHT22;9206;50.994;4.538;2023-11-22T13:16:39;11.30;99.90
18163;DHT22;9206;50.994;4.538;2023-11-22T13:19:30;12.00;99.90
18163;DHT22;9206;50.994;4.538;2023-11-22T13:22:17;12.30;99.90
18163;DHT22;9206;50.994;4.538;2023-11-22T13:25:08;12.30;99.90
18163;DHT22;9206;50.994;4.538;2023-11-22T13:27:59;12.20;99.90
18163;DHT22;9206;50.994;4.538;2023-11-22T13:30:46;12.30;99.90
18163;DHT22;9206;50.994;4.538;2023-11-22T13:33:36;13.20;99.90
18163;DHT22;9206;50.994;4.538;2023-11-22T13:36:27;13.70;99.90
18163;DHT22;9206;50.994;4.538;2023-11-22T13:39:14;13.70;99.90
18163;DHT22;9206;50.994;4.538;2023-11-22T13:42:05;13.20;99.90
18163;DHT22;9206;50.994;4.538;2023-11-22T13:44:53;12.70;99.90
18163;DHT22;9206;50.994;4.538;2023-11-22T13:47:45;12.30;99.90
18163;DHT22;9206;50.994;4.538;2023-11-22T13:50:35;11.90;99.90
18163;DHT22;9206;50.994;4.538;2023-11-22T13:53:23;11.50;99.90
18163;DHT22;9206;50.994;4.538;2023-11-22T13:56:17;11.10;99.90
18163;DHT22;9206;50.994;4.538;2023-11-22T13:59:04;10.70;99.90
18163;DHT22;9206;50.994;4.538;2023-11-22T14:01:55;10.30;99.90
18163;DHT22;9206;50.994;4.538;2023-11-22T14:04:52;10.00;99.90
18163;DHT22;9206;50.994;4.538;2023-11-22T14:07:43;9.90;99.90
18163;DHT22;9206;50.994;4.538;2023-11-22T14:10:35;10.00;99.90
18163;DHT22;9206;50.994;4.538;2023-11-22T14:13:25;10.20;99.90
18163;DHT22;9206;50.994;4.538;2023-11-22T14:16:16;11.10;99.90
18163;DHT22;9206;50.994;4.538;2023-11-22T14:19:05;11.70;99.90
18163;DHT22;9206;50.994;4.538;2023-11-22T14:22:24;11.80;99.90
18163;DHT22;9206;50.994;4.538;2023-11-22T14:25:17;11.80;99.90
18163;DHT22;9206;50.994;4.538;2023-11-22T14:28:16;11.70;99.90
18163;DHT22;9206;50.994;4.538;2023-11-22T14:31:05;11.20;99.90
18163;DHT22;9206;50.994;4.538;2023-11-22T14:33:56;10.70;99.90
18163;DHT22;9206;50.994;4.538;2023-11-22T14:36:51;10.20;99.90
18163;DHT22;9206;50.994;4.538;2023-11-22T14:39:40;9.80;99.90
18163;DHT22;9206;50.994;4.538;2023-11-22T14:42:32;9.40;99.90
18163;DHT22;9206;50.994;4.538;2023-11-22T14:45:21;9.10;99.90
18163;DHT22;9206;50.994;4.538;2023-11-22T14:48:10;8.80;99.90
18163;DHT22;9206;50.994;4.538;2023-11-22T14:50:59;8.60;99.90
18163;DHT22;9206;50.994;4.538;2023-11-22T14:53:48;8.40;99.90
18163;DHT22;9206;50.994;4.538;2023-11-22T14:56:38;8.30;99.90
18163;DHT22;9206;50.994;4.538;2023-11-22T14:59:28;8.20;99.90
18163;DHT22;9206;50.994;4.538;2023-11-22T15:02:48;8.10;99.90
18163;DHT22;9206;50.994;4.538;2023-11-22T15:05:45;8.00;99.90
18163;DHT22;9206;50.994;4.538;2023-11-22T15:08:38;7.90;99.90
18163;DHT22;9206;50.994;4.538;2023-11-22T15:11:31;7.80;99.90
18163;DHT22;9206;50.994;4.538;2023-11-22T15:14:25;7.70;99.90
18163;DHT22;9206;50.994;4.538;2023-11-22T15:17:20;7.60;99.90
18163;DHT22;9206;50.994;4.538;2023-11-22T15:20:09;7.50;99.90
18163;DHT22;9206;50.994;4.538;2023-11-22T15:22:57;7.50;99.90
18163;DHT22;9206;50.994;4.538;2023-11-22T15:25:45;7.50;99.90
18163;DHT22;9206;50.994;4.538;2023-11-22T15:28:33;7.40;99.90
18163;DHT22;9206;50.994;4.538;2023-11-22T15:31:21;7.40;99.90
18163;DHT22;9206;50.994;4.538;2023-11-22T15:34:11;7.30;99.90
18163;DHT22;9206;50.994;4.538;2023-11-22T15:36:59;7.30;99.90
18163;DHT22;9206;50.994;4.538;2023-11-22T15:39:53;7.30;99.90
18163;DHT22;9206;50.994;4.538;2023-11-22T15:42:47;7.30;99.90
18163;DHT22;9206;50.994;4.538;2023-11-22T15:45:41;7.20;99.90
18163;DHT22;9206;50.994;4.538;2023-11-22T15:48:31;7.20;99.90
18163;DHT22;9206;50.994;4.538;2023-11-22T15:51:26;7.20;99.90
18163;DHT22;9206;50.994;4.538;2023-11-22T15:54:16;7.20;99.90
18163;DHT22;9206;50.994;4.538;2023-11-22T15:57:05;7.10;99.90
18163;DHT22;9206;50.994;4.538;2023-11-22T15:59:53;7.10;99.90
18163;DHT22;9206;50.994;4.538;2023-11-22T16:02:41;7.10;99.90
18163;DHT22;9206;50.994;4.538;2023-11-22T16:05:34;7.10;99.90
18163;DHT22;9206;50.994;4.538;2023-11-22T16:08:23;7.10;99.90
18163;DHT22;9206;50.994;4.538;2023-11-22T16:11:36;7.00;99.90
18163;DHT22;9206;50.994;4.538;2023-11-22T16:14:27;7.00;99.90
18163;DHT22;9206;50.994;4.538;2023-11-22T16:17:17;7.00;99.90
18163;DHT22;9206;50.994;4.538;2023-11-22T16:20:11;7.00;99.90
18163;DHT22;9206;50.994;4.538;2023-11-22T16:23:00;7.00;99.90
18163;DHT22;9206;50.994;4.538;2023-11-22T16:25:55;7.00;99.90
18163;DHT22;9206;50.994;4.538;2023-11-22T16:28:43;7.00;99.90
18163;DHT22;9206;50.994;4.538;2023-11-22T16:31:34;6.90;99.90
18163;DHT22;9206;50.994;4.538;2023-11-22T16:34:27;6.90;99.90
18163;DHT22;9206;50.994;4.538;2023-11-22T16:37:23;6.80;99.90
18163;DHT22;9206;50.994;4.538;2023-11-22T16:40:13;6.80;99.90
18163;DHT22;9206;50.994;4.538;2023-11-22T16:43:05;6.80;99.90
18163;DHT22;9206;50.994;4.538;2023-11-22T16:45:53;6.80;99.90
18163;DHT22;9206;50.994;4.538;2023-11-22T16:48:43;6.80;99.90
18163;DHT22;9206;50.994;4.538;2023-11-22T16:51:37;6.80;99.90
18163;DHT22;9206;50.994;4.538;2023-11-22T16:54:26;6.80;99.90
18163;DHT22;9206;50.994;4.538;2023-11-22T16:57:16;6.80;99.90
18163;DHT22;9206;50.994;4.538;2023-11-22T17:00:09;6.80;99.90
18163;DHT22;9206;50.994;4.538;2023-11-22T17:03:03;6.80;99.90
18163;DHT22;9206;50.994;4.538;2023-11-22T17:05:54;6.80;99.90
18163;DHT22;9206;50.994;4.538;2023-11-22T17:08:44;6.80;99.90
18163;DHT22;9206;50.994;4.538;2023-11-22T17:11:31;6.70;99.90
18163;DHT22;9206;50.994;4.538;2023-11-22T17:14:24;6.70;99.90
18163;DHT22;9206;50.994;4.538;2023-11-22T17:17:19;6.70;99.90
18163;DHT22;9206;50.994;4.538;2023-11-22T17:20:13;6.70;99.90
18163;DHT22;9206;50.994;4.538;2023-11-22T17:23:01;6.70;99.90
18163;DHT22;9206;50.994;4.538;2023-11-22T17:25:50;6.70;99.90
18163;DHT22;9206;50.994;4.538;2023-11-22T17:28:37;6.70;99.90
18163;DHT22;9206;50.994;4.538;2023-11-22T17:31:25;6.70;99.90
18163;DHT22;9206;50.994;4.538;2023-11-22T17:34:17;6.70;99.90
18163;DHT22;9206;50.994;4.538;2023-11-22T17:37:09;6.60;99.90
18163;DHT22;9206;50.994;4.538;2023-11-22T17:39:57;6.60;99.90
18163;DHT22;9206;50.994;4.538;2023-11-22T17:42:47;6.60;99.90
18163;DHT22;9206;50.994;4.538;2023-11-22T17:46:02;6.60;99.90
18163;DHT22;9206;50.994;4.538;2023-11-22T17:48:59;6.60;99.90
18163;DHT22;9206;50.994;4.538;2023-11-22T17:51:49;6.60;99.90
18163;DHT22;9206;50.994;4.538;2023-11-22T17:54:41;6.60;99.90
18163;DHT22;9206;50.994;4.538;2023-11-22T17:57:29;6.60;99.90
18163;DHT22;9206;50.994;4.538;2023-11-22T18:00:17;6.60;99.90
18163;DHT22;9206;50.994;4.538;2023-11-22T18:03:15;6.60;99.90
18163;DHT22;9206;50.994;4.538;2023-11-22T18:06:02;6.60;99.90
18163;DHT22;9206;50.994;4.538;2023-11-22T18:09:01;6.60;99.90
18163;DHT22;9206;50.994;4.538;2023-11-22T18:11:49;6.60;99.90
18163;DHT22;9206;50.994;4.538;2023-11-22T18:14:37;6.70;99.90
18163;DHT22;9206;50.994;4.538;2023-11-22T18:17:30;6.70;99.90
18163;DHT22;9206;50.994;4.538;2023-11-22T18:20:19;6.70;99.90
18163;DHT22;9206;50.994;4.538;2023-11-22T18:23:06;6.70;99.90
18163;DHT22;9206;50.994;4.538;2023-11-22T18:25:57;6.70;99.90
18163;DHT22;9206;50.994;4.538;2023-11-22T18:28:50;6.70;99.90
18163;DHT22;9206;50.994;4.538;2023-11-22T18:31:43;6.70;99.90
18163;DHT22;9206;50.994;4.538;2023-11-22T18:34:36;6.60;99.90
18163;DHT22;9206;50.994;4.538;2023-11-22T18:37:24;6.60;99.90
18163;DHT22;9206;50.994;4.538;2023-11-22T18:40:11;6.50;99.90
18163;DHT22;9206;50.994;4.538;2023-11-22T18:43:01;6.50;99.90
18163;DHT22;9206;50.994;4.538;2023-11-22T18:45:51;6.40;99.90
18163;DHT22;9206;50.994;4.538;2023-11-22T18:48:40;6.50;99.90